sensor_id;sensor_type;location;lat;lon;timestamp;temperature;humidity
19522;DHT22;9905;52.126;5.596;2023-04-24T00:00:06;9.80;99.90
19522;DHT22;9905;52.126;5.596;2023-04-24T00:02:36;9.80;99.90
19522;DHT22;9905;52.126;5.596;2023-04-24T00:05:04;9.80;99.90
19522;DHT22;9905;52.126;5.596;2023-04-24T00:07:31;9.80;99.90
19522;DHT22;9905;52.126;5.596;2023-04-24T00:09:58;9.80;99.90
19522;DHT22;9905;52.126;5.596;2023-04-24T00:12:25;9.80;99.90
19522;DHT22;9905;52.126;5.596;2023-04-24T00:14:52;9.80;99.90
19522;DHT22;9905;52.126;5.596;2023-04-24T00:17:20;9.80;99.90
19522;DHT22;9905;52.126;5.596;2023-04-24T00:19:48;9.80;99.90
19522;DHT22;9905;52.126;5.596;2023-04-24T00:22:16;9.80;99.90
19522;DHT22;9905;52.126;5.596;2023-04-24T00:24:43;9.80;99.90
19522;DHT22;9905;52.126;5.596;2023-04-24T00:27:10;9.80;99.90
19522;DHT22;9905;52.126;5.596;2023-04-24T00:29:37;9.80;99.90
19522;DHT22;9905;52.126;5.596;2023-04-24T00:32:03;9.80;99.90
19522;DHT22;9905;52.126;5.596;2023-04-24T00:34:30;9.80;99.90
19522;DHT22;9905;52.126;5.596;2023-04-24T00:36:59;9.90;99.90
19522;DHT22;9905;52.126;5.596;2023-04-24T00:39:26;9.80;99.90
19522;DHT22;9905;52.126;5.596;2023-04-24T00:41:53;9.80;99.90
19522;DHT22;9905;52.126;5.596;2023-04-24T00:44:20;9.80;99.90
19522;DHT22;9905;52.126;5.596;2023-04-24T00:46:47;9.70;99.90
19522;DHT22;9905;52.126;5.596;2023-04-24T00:49:18;9.70;99.90
19522;DHT22;9905;52.126;5.596;2023-04-24T00:51:44;9.70;99.90
19522;DHT22;9905;52.126;5.596;2023-04-24T00:54:13;9.70;99.90
19522;DHT22;9905;52.126;5.596;2023-04-24T00:56:40;9.70;99.90
19522;DHT22;9905;52.126;5.596;2023-04-24T00:59:08;9.70;99.90
19522;DHT22;9905;52.126;5.596;2023-04-24T01:01:35;9.70;99.90
19522;DHT22;9905;52.126;5.596;2023-04-24T01:04:02;9.70;99.90
19522;DHT22;9905;52.126;5.596;2023-04-24T01:06:29;9.70;99.90
19522;DHT22;9905;52.126;5.596;2023-04-24T01:08:58;9.70;99.90
19522;DHT22;9905;52.126;5.596;2023-04-24T01:11:27;9.70;99.90
19522;DHT22;9905;52.126;5.596;2023-04-24T01:13:54;9.70;99.90
19522;DHT22;9905;52.126;5.596;2023-04-24T01:16:20;9.70;99.90
19522;DHT22;9905;52.126;5.596;2023-04-24T01:18:47;9.70;99.90
19522;DHT22;9905;52.126;5.596;2023-04-24T01:21:15;9.70;99.90
19522;DHT22;9905;52.126;5.596;2023-04-24T01:23:44;9.70;99.90
19522;DHT22;9905;52.126;5.596;2023-04-24T01:26:12;9.70;99.90
19522;DHT22;9905;52.126;5.596;2023-04-24T01:28:39;9.70;99.90
19522;DHT22;9905;52.126;5.596;2023-04-24T01:31:06;9.70;99.90
19522;DHT22;9905;52.126;5.596;2023-04-24T01:33:33;9.70;99.90
19522;DHT22;9905;52.126;5.596;2023-04-24T01:36:00;9.70;99.90
19522;DHT22;9905;52.126;5.596;2023-04-24T01:38:27;9.70;99.90
19522;DHT22;9905;52.126;5.596;2023-04-24T01:40:55;9.70;99.90
19522;DHT22;9905;52.126;5.596;2023-04-24T01:43:22;9.60;99.90
19522;DHT22;9905;52.126;5.596;2023-04-24T01:45:50;9.60;99.90
19522;DHT22;9905;52.126;5.596;2023-04-24T01:48:16;9.60;99.90
19522;DHT22;9905;52.126;5.596;2023-04-24T01:50:43;9.60;99.90
19522;DHT22;9905;52.126;5.596;2023-04-24T01:53:10;9.60;99.90
19522;DHT22;9905;52.126;5.596;2023-04-24T01:55:37;9.60;99.90
19522;DHT22;9905;52.126;5.596;2023-04-24T01:58:05;9.70;99.90
19522;DHT22;9905;52.126;5.596;2023-04-24T02:00:33;9.60;99.90
19522;DHT22;9905;52.126;5.596;2023-04-24T02:02:59;9.60;99.90
19522;DHT22;9905;52.126;5.596;2023-04-24T02:05:27;9.60;99.90
19522;DHT22;9905;52.126;5.596;2023-04-24T02:07:54;9.70;99.90
19522;DHT22;9905;52.126;5.596;2023-04-24T02:10:21;9.70;99.90
19522;DHT22;9905;52.126;5.596;2023-04-24T02:12:48;9.70;99.90
19522;DHT22;9905;52.126;5.596;2023-04-24T02:15:16;9.70;99.90
19522;DHT22;9905;52.126;5.596;2023-04-24T02:17:43;9.70;99.90
19522;DHT22;9905;52.126;5.596;2023-04-24T02:20:10;9.70;99.90
19522;DHT22;9905;52.126;5.596;2023-04-24T02:22:37;9.70;99.90
19522;DHT22;9905;52.126;5.596;2023-04-24T02:25:04;9.60;99.90
19522;DHT22;9905;52.126;5.596;2023-04-24T02:27:31;9.60;99.90
19522;DHT22;9905;52.126;5.596;2023-04-24T02:29:58;9.70;99.90
19522;DHT22;9905;52.126;5.596;2023-04-24T02:32:26;9.70;99.90
19522;DHT22;9905;52.126;5.596;2023-04-24T02:34:52;9.70;99.90
19522;DHT22;9905;52.126;5.596;2023-04-24T02:37:19;9.60;99.90
19522;DHT22;9905;52.126;5.596;2023-04-24T02:39:46;9.70;99.90
19522;DHT22;9905;52.126;5.596;2023-04-24T02:42:13;9.70;99.90
19522;DHT22;9905;52.126;5.596;2023-04-24T02:44:39;9.70;99.90
19522;DHT22;9905;52.126;5.596;2023-04-24T02:47:06;9.70;99.90
19522;DHT22;9905;52.126;5.596;2023-04-24T02:49:35;9.70;99.90
19522;DHT22;9905;52.126;5.596;2023-04-24T02:52:02;9.70;99.90
19522;DHT22;9905;52.126;5.596;2023-04-24T02:54:28;9.70;99.90
19522;DHT22;9905;52.126;5.596;2023-04-24T02:56:55;9.70;99.90
19522;DHT22;9905;52.126;5.596;2023-04-24T02:59:22;9.70;99.90
19522;DHT22;9905;52.126;5.596;2023-04-24T03:01:48;9.70;99.90
19522;DHT22;9905;52.126;5.596;2023-04-24T03:04:15;9.70;99.90
19522;DHT22;9905;52.126;5.596;2023-04-24T03:06:46;9.80;99.90
19522;DHT22;9905;52.126;5.596;2023-04-24T03:09:13;9.80;99.90
19522;DHT22;9905;52.126;5.596;2023-04-24T03:11:40;9.70;99.90
19522;DHT22;9905;52.126;5.596;2023-04-24T03:14:07;9.70;99.90
19522;DHT22;9905;52.126;5.596;2023-04-24T03:16:33;9.70;99.90
19522;DHT22;9905;52.126;5.596;2023-04-24T03:19:00;9.70;99.90
19522;DHT22;9905;52.126;5.596;2023-04-24T03:21:27;9.70;99.90
19522;DHT22;9905;52.126;5.596;2023-04-24T03:23:56;9.70;99.90
19522;DHT22;9905;52.126;5.596;2023-04-24T03:26:22;9.60;99.90
19522;DHT22;9905;52.126;5.596;2023-04-24T03:28:49;9.60;99.90
19522;DHT22;9905;52.126;5.596;2023-04-24T03:31:16;9.60;99.90
19522;DHT22;9905;52.126;5.596;2023-04-24T03:33:44;9.70;99.90
19522;DHT22;9905;52.126;5.596;2023-04-24T03:36:11;9.70;99.90
19522;DHT22;9905;52.126;5.596;2023-04-24T03:38:37;9.70;99.90
19522;DHT22;9905;52.126;5.596;2023-04-24T03:41:05;9.70;99.90
19522;DHT22;9905;52.126;5.596;2023-04-24T03:43:32;9.70;99.90
19522;DHT22;9905;52.126;5.596;2023-04-24T03:46:00;9.70;99.90
19522;DHT22;9905;52.126;5.596;2023-04-24T03:48:26;9.70;99.90
19522;DHT22;9905;52.126;5.596;2023-04-24T03:50:53;9.70;99.90
19522;DHT22;9905;52.126;5.596;2023-04-24T03:53:20;9.70;99.90
19522;DHT22;9905;52.126;5.596;2023-04-24T03:55:47;9.70;99.90
19522;DHT22;9905;52.126;5.596;2023-04-24T03:58:16;9.70;99.90
19522;DHT22;9905;52.126;5.596;2023-04-24T04:00:43;9.70;99.90
19522;DHT22;9905;52.126;5.596;2023-04-24T04:03:11;9.70;99.90
19522;DHT22;9905;52.126;5.596;2023-04-24T04:05:39;9.60;99.90
19522;DHT22;9905;52.126;5.596;2023-04-24T04:08:05;9.70;99.90
19522;DHT22;9905;52.126;5.596;2023-04-24T04:10:32;9.70;99.90
19522;DHT22;9905;52.126;5.596;2023-04-24T04:12:59;9.70;99.90
19522;DHT22;9905;52.126;5.596;2023-04-24T04:15:27;9.60;99.90
19522;DHT22;9905;52.126;5.596;2023-04-24T04:17:54;9.70;99.90
19522;DHT22;9905;52.126;5.596;2023-04-24T04:20:21;9.70;99.90
19522;DHT22;9905;52.126;5.596;2023-04-24T04:22:47;9.70;99.90
19522;DHT22;9905;52.126;5.596;2023-04-24T04:25:14;9.70;99.90
19522;DHT22;9905;52.126;5.596;2023-04-24T04:27:41;9.70;99.90
19522;DHT22;9905;52.126;5.596;2023-04-24T04:30:08;9.60;99.90
19522;DHT22;9905;52.126;5.596;2023-04-24T04:32:36;9.60;99.90
19522;DHT22;9905;52.126;5.596;2023-04-24T04:35:04;9.60;99.90
19522;DHT22;9905;52.126;5.596;2023-04-24T04:37:32;9.60;99.90
19522;DHT22;9905;52.126;5.596;2023-04-24T04:39:59;9.60;99.90
19522;DHT22;9905;52.126;5.596;2023-04-24T04:42:26;9.60;99.90
19522;DHT22;9905;52.126;5.596;2023-04-24T04:44:53;9.60;99.90
19522;DHT22;9905;52.126;5.596;2023-04-24T04:47:22;9.70;99.90
19522;DHT22;9905;52.126;5.596;2023-04-24T04:49:50;9.70;99.90
19522;DHT22;9905;52.126;5.596;2023-04-24T04:52:17;9.60;99.90
19522;DHT22;9905;52.126;5.596;2023-04-24T04:54:44;9.60;99.90
19522;DHT22;9905;52.126;5.596;2023-04-24T04:57:11;9.60;99.90
19522;DHT22;9905;52.126;5.596;2023-04-24T04:59:38;9.60;99.90
19522;DHT22;9905;52.126;5.596;2023-04-24T05:02:06;9.60;99.90
19522;DHT22;9905;52.126;5.596;2023-04-24T05:04:33;9.60;99.90
19522;DHT22;9905;52.126;5.596;2023-04-24T05:07:01;9.60;99.90
19522;DHT22;9905;52.126;5.596;2023-04-24T05:09:28;9.60;99.90
19522;DHT22;9905;52.126;5.596;2023-04-24T05:11:55;9.60;99.90
19522;DHT22;9905;52.126;5.596;2023-04-24T05:14:22;9.60;99.90
19522;DHT22;9905;52.126;5.596;2023-04-24T05:16:49;9.60;99.90
19522;DHT22;9905;52.126;5.596;2023-04-24T05:19:16;9.70;99.90
19522;DHT22;9905;52.126;5.596;2023-04-24T05:21:43;9.60;99.90
19522;DHT22;9905;52.126;5.596;2023-04-24T05:24:11;9.60;99.90
19522;DHT22;9905;52.126;5.596;2023-04-24T05:26:37;9.60;99.90
19522;DHT22;9905;52.126;5.596;2023-04-24T05:29:04;9.60;99.90
19522;DHT22;9905;52.126;5.596;2023-04-24T05:31:31;9.60;99.90
19522;DHT22;9905;52.126;5.596;2023-04-24T05:33:57;9.70;99.90
19522;DHT22;9905;52.126;5.596;2023-04-24T05:36:24;9.70;99.90
19522;DHT22;9905;52.126;5.596;2023-04-24T05:38:52;9.70;99.90
19522;DHT22;9905;52.126;5.596;2023-04-24T05:41:20;9.70;99.90
19522;DHT22;9905;52.126;5.596;2023-04-24T05:43:47;9.70;99.90
19522;DHT22;9905;52.126;5.596;2023-04-24T05:46:14;9.70;99.90
19522;DHT22;9905;52.126;5.596;2023-04-24T05:48:41;9.80;99.90
19522;DHT22;9905;52.126;5.596;2023-04-24T05:51:09;9.80;99.90
19522;DHT22;9905;52.126;5.596;2023-04-24T05:53:36;9.80;99.90
19522;DHT22;9905;52.126;5.596;2023-04-24T05:56:02;9.80;99.90
19522;DHT22;9905;52.126;5.596;2023-04-24T05:58:31;9.80;99.90
19522;DHT22;9905;52.126;5.596;2023-04-24T06:00:57;9.90;99.90
19522;DHT22;9905;52.126;5.596;2023-04-24T06:03:26;9.90;99.90
19522;DHT22;9905;52.126;5.596;2023-04-24T06:05:53;9.90;99.90
19522;DHT22;9905;52.126;5.596;2023-04-24T06:08:20;9.90;99.90
19522;DHT22;9905;52.126;5.596;2023-04-24T06:10:46;9.90;99.90
19522;DHT22;9905;52.126;5.596;2023-04-24T06:13:13;9.90;99.90
19522;DHT22;9905;52.126;5.596;2023-04-24T06:15:42;9.90;99.90
19522;DHT22;9905;52.126;5.596;2023-04-24T06:18:08;9.90;99.90
19522;DHT22;9905;52.126;5.596;2023-04-24T06:20:35;9.80;99.90
19522;DHT22;9905;52.126;5.596;2023-04-24T06:23:02;9.80;99.90
19522;DHT22;9905;52.126;5.596;2023-04-24T06:25:29;9.80;99.90
19522;DHT22;9905;52.126;5.596;2023-04-24T06:27:56;9.80;99.90
19522;DHT22;9905;52.126;5.596;2023-04-24T06:30:23;9.70;99.90
19522;DHT22;9905;52.126;5.596;2023-04-24T06:32:51;9.80;99.90
19522;DHT22;9905;52.126;5.596;2023-04-24T06:35:18;9.70;99.90
19522;DHT22;9905;52.126;5.596;2023-04-24T06:37:45;9.70;99.90
19522;DHT22;9905;52.126;5.596;2023-04-24T06:40:12;9.70;99.90
19522;DHT22;9905;52.126;5.596;2023-04-24T06:42:38;9.70;99.90
19522;DHT22;9905;52.126;5.596;2023-04-24T06:45:06;9.70;99.90
19522;DHT22;9905;52.126;5.596;2023-04-24T06:47:33;9.60;99.90
19522;DHT22;9905;52.126;5.596;2023-04-24T06:50:01;9.60;99.90
19522;DHT22;9905;52.126;5.596;2023-04-24T06:52:27;9.60;99.90
19522;DHT22;9905;52.126;5.596;2023-04-24T06:55:00;9.60;99.90
19522;DHT22;9905;52.126;5.596;2023-04-24T06:57:27;9.50;99.90
19522;DHT22;9905;52.126;5.596;2023-04-24T06:59:54;9.40;99.90
19522;DHT22;9905;52.126;5.596;2023-04-24T07:02:21;9.40;99.90
19522;DHT22;9905;52.126;5.596;2023-04-24T07:04:47;9.40;99.90
19522;DHT22;9905;52.126;5.596;2023-04-24T07:07:15;9.30;99.90
19522;DHT22;9905;52.126;5.596;2023-04-24T07:09:42;9.30;99.90
19522;DHT22;9905;52.126;5.596;2023-04-24T07:12:11;9.30;99.90
19522;DHT22;9905;52.126;5.596;2023-04-24T07:14:37;9.30;99.90
19522;DHT22;9905;52.126;5.596;2023-04-24T07:17:05;9.30;99.90
19522;DHT22;9905;52.126;5.596;2023-04-24T07:19:33;9.30;99.90
19522;DHT22;9905;52.126;5.596;2023-04-24T07:22:00;9.30;99.90
19522;DHT22;9905;52.126;5.596;2023-04-24T07:24:30;9.30;99.90
19522;DHT22;9905;52.126;5.596;2023-04-24T07:26:57;9.30;99.90
19522;DHT22;9905;52.126;5.596;2023-04-24T07:29:24;9.30;99.90
19522;DHT22;9905;52.126;5.596;2023-04-24T07:31:51;9.20;99.90
19522;DHT22;9905;52.126;5.596;2023-04-24T07:34:19;9.20;99.90
19522;DHT22;9905;52.126;5.596;2023-04-24T07:36:46;9.20;99.90
19522;DHT22;9905;52.126;5.596;2023-04-24T07:39:12;9.10;99.90
19522;DHT22;9905;52.126;5.596;2023-04-24T07:41:40;9.10;99.90
19522;DHT22;9905;52.126;5.596;2023-04-24T07:44:08;9.10;99.90
19522;DHT22;9905;52.126;5.596;2023-04-24T07:46:34;9.10;99.90
19522;DHT22;9905;52.126;5.596;2023-04-24T07:49:01;9.10;99.90
19522;DHT22;9905;52.126;5.596;2023-04-24T07:51:29;9.00;99.90
19522;DHT22;9905;52.126;5.596;2023-04-24T07:53:58;9.00;99.90
19522;DHT22;9905;52.126;5.596;2023-04-24T07:56:24;9.00;99.90
19522;DHT22;9905;52.126;5.596;2023-04-24T07:58:52;9.00;99.90
19522;DHT22;9905;52.126;5.596;2023-04-24T08:01:19;8.90;99.90
19522;DHT22;9905;52.126;5.596;2023-04-24T08:03:46;8.90;99.90
19522;DHT22;9905;52.126;5.596;2023-04-24T08:06:13;9.00;99.90
19522;DHT22;9905;52.126;5.596;2023-04-24T08:08:39;9.00;99.90
19522;DHT22;9905;52.126;5.596;2023-04-24T08:11:06;8.90;99.90
19522;DHT22;9905;52.126;5.596;2023-04-24T08:13:33;9.00;99.90
19522;DHT22;9905;52.126;5.596;2023-04-24T08:16:01;9.00;99.90
19522;DHT22;9905;52.126;5.596;2023-04-24T08:18:28;9.00;99.90
19522;DHT22;9905;52.126;5.596;2023-04-24T08:20:54;9.00;99.90
19522;DHT22;9905;52.126;5.596;2023-04-24T08:23:21;9.00;99.90
19522;DHT22;9905;52.126;5.596;2023-04-24T08:25:48;9.00;99.90
19522;DHT22;9905;52.126;5.596;2023-04-24T08:28:15;9.00;99.90
19522;DHT22;9905;52.126;5.596;2023-04-24T08:30:45;9.00;99.90
19522;DHT22;9905;52.126;5.596;2023-04-24T08:33:13;9.10;99.90
19522;DHT22;9905;52.126;5.596;2023-04-24T08:35:40;9.00;99.90
19522;DHT22;9905;52.126;5.596;2023-04-24T08:38:07;8.90;99.90
19522;DHT22;9905;52.126;5.596;2023-04-24T08:40:35;8.90;99.90
19522;DHT22;9905;52.126;5.596;2023-04-24T08:43:03;8.90;99.90
19522;DHT22;9905;52.126;5.596;2023-04-24T08:45:30;8.90;99.90
19522;DHT22;9905;52.126;5.596;2023-04-24T08:47:57;8.90;99.90
19522;DHT22;9905;52.126;5.596;2023-04-24T08:50:26;8.90;99.90
19522;DHT22;9905;52.126;5.596;2023-04-24T08:52:53;8.90;99.90
19522;DHT22;9905;52.126;5.596;2023-04-24T08:55:20;8.80;99.90
19522;DHT22;9905;52.126;5.596;2023-04-24T08:57:51;8.80;99.90
19522;DHT22;9905;52.126;5.596;2023-04-24T09:00:19;8.80;99.90
19522;DHT22;9905;52.126;5.596;2023-04-24T09:02:48;8.80;99.90
19522;DHT22;9905;52.126;5.596;2023-04-24T09:05:16;8.80;99.90
19522;DHT22;9905;52.126;5.596;2023-04-24T09:07:49;8.90;99.90
19522;DHT22;9905;52.126;5.596;2023-04-24T09:10:16;8.90;99.90
19522;DHT22;9905;52.126;5.596;2023-04-24T09:12:43;8.90;99.90
19522;DHT22;9905;52.126;5.596;2023-04-24T09:15:11;8.90;99.90
19522;DHT22;9905;52.126;5.596;2023-04-24T09:17:38;8.90;99.90
19522;DHT22;9905;52.126;5.596;2023-04-24T09:20:05;9.00;99.90
19522;DHT22;9905;52.126;5.596;2023-04-24T09:22:32;9.00;99.90
19522;DHT22;9905;52.126;5.596;2023-04-24T09:25:02;9.10;99.90
19522;DHT22;9905;52.126;5.596;2023-04-24T09:27:29;9.10;99.90
19522;DHT22;9905;52.126;5.596;2023-04-24T09:29:57;9.10;99.90
19522;DHT22;9905;52.126;5.596;2023-04-24T09:32:25;9.10;99.90
19522;DHT22;9905;52.126;5.596;2023-04-24T09:35:06;9.20;99.90
19522;DHT22;9905;52.126;5.596;2023-04-24T09:37:35;9.20;99.90
19522;DHT22;9905;52.126;5.596;2023-04-24T09:40:14;9.20;99.90
19522;DHT22;9905;52.126;5.596;2023-04-24T09:42:44;9.30;99.90
19522;DHT22;9905;52.126;5.596;2023-04-24T09:45:12;9.30;99.90
19522;DHT22;9905;52.126;5.596;2023-04-24T09:47:39;9.30;99.90
19522;DHT22;9905;52.126;5.596;2023-04-24T09:50:10;9.40;99.90
19522;DHT22;9905;52.126;5.596;2023-04-24T09:52:40;9.50;99.90
19522;DHT22;9905;52.126;5.596;2023-04-24T09:55:12;9.50;99.90
19522;DHT22;9905;52.126;5.596;2023-04-24T09:57:47;9.60;99.90
19522;DHT22;9905;52.126;5.596;2023-04-24T10:00:18;9.70;99.90
19522;DHT22;9905;52.126;5.596;2023-04-24T10:02:50;9.70;99.90
19522;DHT22;9905;52.126;5.596;2023-04-24T10:05:17;9.70;99.90
19522;DHT22;9905;52.126;5.596;2023-04-24T10:07:44;9.70;99.90
19522;DHT22;9905;52.126;5.596;2023-04-24T10:10:13;9.70;99.90
19522;DHT22;9905;52.126;5.596;2023-04-24T10:12:40;9.70;99.90
19522;DHT22;9905;52.126;5.596;2023-04-24T10:15:09;9.70;99.90
19522;DHT22;9905;52.126;5.596;2023-04-24T10:17:37;9.70;99.90
19522;DHT22;9905;52.126;5.596;2023-04-24T10:20:06;9.70;99.90
19522;DHT22;9905;52.126;5.596;2023-04-24T10:22:34;9.70;99.90
19522;DHT22;9905;52.126;5.596;2023-04-24T10:25:04;9.70;99.90
19522;DHT22;9905;52.126;5.596;2023-04-24T10:27:34;9.70;99.90
19522;DHT22;9905;52.126;5.596;2023-04-24T10:30:02;9.70;99.90
19522;DHT22;9905;52.126;5.596;2023-04-24T10:32:29;9.70;99.90
19522;DHT22;9905;52.126;5.596;2023-04-24T10:34:56;9.70;99.90
19522;DHT22;9905;52.126;5.596;2023-04-24T10:37:23;9.70;99.90
19522;DHT22;9905;52.126;5.596;2023-04-24T10:39:51;9.80;99.90
19522;DHT22;9905;52.126;5.596;2023-04-24T10:42:20;9.80;99.90
19522;DHT22;9905;52.126;5.596;2023-04-24T10:44:48;9.80;99.90
19522;DHT22;9905;52.126;5.596;2023-04-24T10:47:15;9.90;99.90
19522;DHT22;9905;52.126;5.596;2023-04-24T10:49:42;9.90;99.90
19522;DHT22;9905;52.126;5.596;2023-04-24T10:52:09;10.00;99.90
19522;DHT22;9905;52.126;5.596;2023-04-24T10:54:42;10.10;99.90
19522;DHT22;9905;52.126;5.596;2023-04-24T10:57:26;10.10;99.90
19522;DHT22;9905;52.126;5.596;2023-04-24T11:02:53;10.20;99.90
19522;DHT22;9905;52.126;5.596;2023-04-24T11:05:21;10.40;99.90
19522;DHT22;9905;52.126;5.596;2023-04-24T11:08:10;10.40;99.90
19522;DHT22;9905;52.126;5.596;2023-04-24T11:10:39;10.30;99.90
19522;DHT22;9905;52.126;5.596;2023-04-24T11:13:06;10.20;99.90
19522;DHT22;9905;52.126;5.596;2023-04-24T11:15:33;10.10;99.90
19522;DHT22;9905;52.126;5.596;2023-04-24T11:18:02;10.10;99.90
19522;DHT22;9905;52.126;5.596;2023-04-24T11:20:28;10.00;99.90
19522;DHT22;9905;52.126;5.596;2023-04-24T11:22:58;9.90;99.90
19522;DHT22;9905;52.126;5.596;2023-04-24T11:25:31;9.80;99.90
19522;DHT22;9905;52.126;5.596;2023-04-24T11:28:03;9.70;99.90
19522;DHT22;9905;52.126;5.596;2023-04-24T11:30:32;9.70;99.90
19522;DHT22;9905;52.126;5.596;2023-04-24T11:33:04;9.60;99.90
19522;DHT22;9905;52.126;5.596;2023-04-24T11:35:35;9.50;99.90
19522;DHT22;9905;52.126;5.596;2023-04-24T11:38:03;9.40;99.90
19522;DHT22;9905;52.126;5.596;2023-04-24T11:40:30;9.40;99.90
19522;DHT22;9905;52.126;5.596;2023-04-24T11:43:00;9.50;99.90
19522;DHT22;9905;52.126;5.596;2023-04-24T11:45:28;9.50;99.90
19522;DHT22;9905;52.126;5.596;2023-04-24T11:47:55;9.60;99.90
19522;DHT22;9905;52.126;5.596;2023-04-24T11:50:25;9.70;99.90
19522;DHT22;9905;52.126;5.596;2023-04-24T11:52:53;9.90;99.90
19522;DHT22;9905;52.126;5.596;2023-04-24T11:55:26;10.20;99.90
19522;DHT22;9905;52.126;5.596;2023-04-24T11:57:54;10.40;99.90
19522;DHT22;9905;52.126;5.596;2023-04-24T12:00:23;10.40;99.90
19522;DHT22;9905;52.126;5.596;2023-04-24T12:02:51;10.30;99.90
19522;DHT22;9905;52.126;5.596;2023-04-24T12:05:19;10.30;99.90
19522;DHT22;9905;52.126;5.596;2023-04-24T12:07:48;10.30;99.90
19522;DHT22;9905;52.126;5.596;2023-04-24T12:10:20;10.40;99.90
19522;DHT22;9905;52.126;5.596;2023-04-24T12:12:46;10.60;99.90
19522;DHT22;9905;52.126;5.596;2023-04-24T12:15:16;10.70;99.90
19522;DHT22;9905;52.126;5.596;2023-04-24T12:17:43;10.90;99.90
19522;DHT22;9905;52.126;5.596;2023-04-24T12:20:11;11.10;99.90
19522;DHT22;9905;52.126;5.596;2023-04-24T12:22:45;11.10;99.90
19522;DHT22;9905;52.126;5.596;2023-04-24T12:25:16;11.20;99.90
19522;DHT22;9905;52.126;5.596;2023-04-24T12:27:44;11.10;99.90
19522;DHT22;9905;52.126;5.596;2023-04-24T12:30:13;11.00;99.90
19522;DHT22;9905;52.126;5.596;2023-04-24T12:32:43;10.90;99.90
19522;DHT22;9905;52.126;5.596;2023-04-24T12:35:10;10.80;99.90
19522;DHT22;9905;52.126;5.596;2023-04-24T12:37:37;10.70;99.90
19522;DHT22;9905;52.126;5.596;2023-04-24T12:40:07;10.60;99.90
19522;DHT22;9905;52.126;5.596;2023-04-24T12:42:43;10.60;99.90
19522;DHT22;9905;52.126;5.596;2023-04-24T12:45:10;10.50;99.90
19522;DHT22;9905;52.126;5.596;2023-04-24T12:47:39;10.40;99.90
19522;DHT22;9905;52.126;5.596;2023-04-24T12:50:07;10.40;99.90
19522;DHT22;9905;52.126;5.596;2023-04-24T12:52:34;10.40;99.90
19522;DHT22;9905;52.126;5.596;2023-04-24T12:55:01;10.30;99.90
19522;DHT22;9905;52.126;5.596;2023-04-24T12:57:29;10.30;99.90
19522;DHT22;9905;52.126;5.596;2023-04-24T12:59:58;10.40;99.90
19522;DHT22;9905;52.126;5.596;2023-04-24T13:02:27;10.40;99.90
19522;DHT22;9905;52.126;5.596;2023-04-24T13:04:54;10.40;99.90
19522;DHT22;9905;52.126;5.596;2023-04-24T13:07:21;10.50;99.90
19522;DHT22;9905;52.126;5.596;2023-04-24T13:09:49;10.50;99.90
19522;DHT22;9905;52.126;5.596;2023-04-24T13:12:16;10.50;99.90
19522;DHT22;9905;52.126;5.596;2023-04-24T13:14:43;10.50;99.90
19522;DHT22;9905;52.126;5.596;2023-04-24T13:17:12;10.40;99.90
19522;DHT22;9905;52.126;5.596;2023-04-24T13:19:40;10.10;99.90
19522;DHT22;9905;52.126;5.596;2023-04-24T13:22:09;10.00;99.90
19522;DHT22;9905;52.126;5.596;2023-04-24T13:24:36;9.90;99.90
19522;DHT22;9905;52.126;5.596;2023-04-24T13:27:05;9.70;99.90
19522;DHT22;9905;52.126;5.596;2023-04-24T13:29:32;9.70;99.90
19522;DHT22;9905;52.126;5.596;2023-04-24T13:31:59;9.80;99.90
19522;DHT22;9905;52.126;5.596;2023-04-24T13:34:27;9.90;99.90
19522;DHT22;9905;52.126;5.596;2023-04-24T13:36:57;10.10;99.90
19522;DHT22;9905;52.126;5.596;2023-04-24T13:39:24;10.10;99.90
19522;DHT22;9905;52.126;5.596;2023-04-24T13:41:51;10.30;99.90
19522;DHT22;9905;52.126;5.596;2023-04-24T13:44:19;10.40;99.90
19522;DHT22;9905;52.126;5.596;2023-04-24T13:46:48;10.60;99.90
19522;DHT22;9905;52.126;5.596;2023-04-24T13:49:15;10.90;99.90
19522;DHT22;9905;52.126;5.596;2023-04-24T13:51:44;11.10;99.90
19522;DHT22;9905;52.126;5.596;2023-04-24T13:54:11;11.10;99.90
19522;DHT22;9905;52.126;5.596;2023-04-24T13:56:38;11.10;99.90
19522;DHT22;9905;52.126;5.596;2023-04-24T13:59:05;11.10;99.90
19522;DHT22;9905;52.126;5.596;2023-04-24T14:01:32;11.10;99.90
19522;DHT22;9905;52.126;5.596;2023-04-24T14:03:58;11.00;99.90
19522;DHT22;9905;52.126;5.596;2023-04-24T14:06:25;10.90;99.90
19522;DHT22;9905;52.126;5.596;2023-04-24T14:08:53;10.90;99.90
19522;DHT22;9905;52.126;5.596;2023-04-24T14:11:20;10.80;99.90
19522;DHT22;9905;52.126;5.596;2023-04-24T14:13:47;10.80;99.90
19522;DHT22;9905;52.126;5.596;2023-04-24T14:16:14;10.80;99.90
19522;DHT22;9905;52.126;5.596;2023-04-24T14:18:41;10.80;99.90
19522;DHT22;9905;52.126;5.596;2023-04-24T14:21:07;11.10;99.90
19522;DHT22;9905;52.126;5.596;2023-04-24T14:23:34;11.40;99.90
19522;DHT22;9905;52.126;5.596;2023-04-24T14:26:03;11.30;99.90
19522;DHT22;9905;52.126;5.596;2023-04-24T14:28:29;11.20;99.90
19522;DHT22;9905;52.126;5.596;2023-04-24T14:30:56;11.20;99.90
19522;DHT22;9905;52.126;5.596;2023-04-24T14:33:23;11.20;99.90
19522;DHT22;9905;52.126;5.596;2023-04-24T14:35:49;11.10;99.90
19522;DHT22;9905;52.126;5.596;2023-04-24T14:38:16;11.00;99.90
19522;DHT22;9905;52.126;5.596;2023-04-24T14:40:43;11.00;99.90
19522;DHT22;9905;52.126;5.596;2023-04-24T14:43:11;11.00;99.90
19522;DHT22;9905;52.126;5.596;2023-04-24T14:45:38;10.90;99.90
19522;DHT22;9905;52.126;5.596;2023-04-24T14:48:06;10.80;99.90
19522;DHT22;9905;52.126;5.596;2023-04-24T14:50:33;10.80;99.90
19522;DHT22;9905;52.126;5.596;2023-04-24T14:53:00;10.80;99.90
19522;DHT22;9905;52.126;5.596;2023-04-24T14:55:28;10.80;99.90
19522;DHT22;9905;52.126;5.596;2023-04-24T14:57:55;11.00;99.90
19522;DHT22;9905;52.126;5.596;2023-04-24T15:00:23;11.00;99.90
19522;DHT22;9905;52.126;5.596;2023-04-24T15:02:50;11.00;99.90
19522;DHT22;9905;52.126;5.596;2023-04-24T15:05:16;11.00;99.90
19522;DHT22;9905;52.126;5.596;2023-04-24T15:07:43;10.90;99.90
19522;DHT22;9905;52.126;5.596;2023-04-24T15:10:11;10.90;99.90
19522;DHT22;9905;52.126;5.596;2023-04-24T15:12:37;10.80;99.90
19522;DHT22;9905;52.126;5.596;2023-04-24T15:15:05;10.70;99.90
19522;DHT22;9905;52.126;5.596;2023-04-24T15:17:33;10.50;99.90
19522;DHT22;9905;52.126;5.596;2023-04-24T15:20:01;10.40;99.90
19522;DHT22;9905;52.126;5.596;2023-04-24T15:22:28;10.40;99.90
19522;DHT22;9905;52.126;5.596;2023-04-24T15:24:55;10.30;99.90
19522;DHT22;9905;52.126;5.596;2023-04-24T15:27:21;10.30;99.90
19522;DHT22;9905;52.126;5.596;2023-04-24T15:29:48;10.10;99.90
19522;DHT22;9905;52.126;5.596;2023-04-24T15:32:15;9.90;99.90
19522;DHT22;9905;52.126;5.596;2023-04-24T15:34:43;9.70;99.90
19522;DHT22;9905;52.126;5.596;2023-04-24T15:37:10;9.90;99.90
19522;DHT22;9905;52.126;5.596;2023-04-24T15:39:37;9.90;99.90
19522;DHT22;9905;52.126;5.596;2023-04-24T15:42:04;10.00;99.90
19522;DHT22;9905;52.126;5.596;2023-04-24T15:44:31;10.00;99.90
19522;DHT22;9905;52.126;5.596;2023-04-24T15:49:26;10.00;99.90
19522;DHT22;9905;52.126;5.596;2023-04-24T15:51:54;10.10;99.90
19522;DHT22;9905;52.126;5.596;2023-04-24T15:54:21;10.30;99.90
19522;DHT22;9905;52.126;5.596;2023-04-24T15:56:49;10.50;99.90
19522;DHT22;9905;52.126;5.596;2023-04-24T15:59:16;10.70;99.90
19522;DHT22;9905;52.126;5.596;2023-04-24T16:01:43;10.90;99.90
19522;DHT22;9905;52.126;5.596;2023-04-24T16:04:10;11.10;99.90